Arvada, WY

4:36 PM MDT on September 01, 2014 (GMT -0600)
Gillette-Campbell County | Change Station
CLOSE
Current Station
Airport
Location: Gillette,
Elevation: 4364 ft
Nearby Weather Stations

Elev 4364 ft 44.34 °N, 105.54 °W | Updated 43 minutes ago

Clear
Clear
60 °F
Feels Like 60 °F
N
4
Wind Variable Wind from Variable

Today
High -- | Low -- °F
--% Chance of Precip.
Yesterday
High -- | Low -- °F
Precip. -- in
6:26 AM 7:41 PM
Waxing Crescent, 45% visible
Pressure 29.95 in
Visibility 10.0 miles
Clouds Clear
Dew Point 46 °F
Humidity 60%
Rainfall 0.02 in
Snow Depth Not available.
UV 5 out of 12
Pollen 7.30 out of 12
Air Quality Not available.
Flu Activity Not available.
METAR KGCC 012153Z AUTO VRB03KT 10SM CLR 16/08 A3001 RMK AO2 LTG DSNT S RAE26 SLP140 P0002 T01560078

More Conditions Fewer Conditions

Pressure 29.95 in
Visibility 10.0 miles
Clouds Clear
Dew Point 46 °F
Humidity 60%
Rainfall 0.02 in
Snow Depth Not available.
UV 5 out of 12
Pollen 7.30 out of 12
Air Quality Not available.
Flu Activity Not available.
METAR KGCC 012153Z AUTO VRB03KT 10SM CLR 16/08 A3001 RMK AO2 LTG DSNT S RAE26 SLP140 P0002 T01560078

More Conditions Fewer Conditions

10-Day Weather Forecast

Almanac

Astronomy

Sep. 01, 2014 Rise Set
Actual Time 6:26 AM MDT 7:41 PM MDT
Civil Twilight 5:56 AM MDT 8:11 PM MDT
Nautical Twilight 5:20 AM MDT 8:47 PM MDT
Astronomical Twilight 4:42 AM MDT 9:25 PM MDT
Moon 1:32 PM MDT 11:27 PM MDT
Length of Visible Light 14h 14m
Length of Day
13h 14m
Tomorrow will be 2m 59s shorter.
Waxing Crescent, 45% of the Moon is Illuminated
Today
Waxing Crescent
Sep 2
First Quarter
Sep 8
Full
Sep 15
Last Quarter
Sep 24
New

Today's Extremes

State Highs State Lows

Community

WunderPhotos

Upload Photos

1,749,423 photos uploaded!

Nearby

Snow Depth

Station Depth Elevation
Casper Mountain 0 in 7850 ft
Gunsight Pass 4 in 9820 ft
Big Sandy Opening 0 in 9080 ft
Kendall R.S. 0 in 7740 ft
Gros Ventre Summit 0 in 8750 ft

Earthquake Activity

City Distance Mag. Time & Date
No recent earthquake activity has been reported nearby.
Minimum magnitude displayed is 2.5.

Coastal Water Temperatures

Place Temperature
No Stations Reporting

Nearby Weather Stations